createdAt,value
2019-04-07T00:00:33.746Z,93.75
2019-04-07T00:03:02.832Z,93.49
2019-04-07T00:05:32.219Z,93.46
2019-04-07T00:08:00.995Z,93.74
2019-04-07T00:10:30.381Z,94.19
2019-04-07T00:12:59.555Z,94.13
2019-04-07T00:15:28.369Z,94.03
2019-04-07T00:17:57.040Z,93.90
2019-04-07T00:20:25.699Z,93.81
2019-04-07T00:22:55.128Z,93.90
2019-04-07T00:25:23.926Z,94.15
2019-04-07T00:27:52.589Z,94.02
2019-04-07T00:30:21.245Z,94.01
2019-04-07T00:32:50.283Z,94.14
2019-04-07T00:35:26.575Z,94.16
2019-04-07T00:37:49.728Z,94.10
2019-04-07T00:40:18.607Z,94.02
2019-04-07T00:42:47.257Z,94.11
2019-04-07T00:45:16.562Z,94.26
2019-04-07T00:47:46.142Z,94.13
2019-04-07T00:50:16.159Z,94.18
2019-04-07T00:52:45.343Z,94.04
2019-04-07T00:55:14.223Z,94.03
2019-04-07T00:57:43.055Z,94.21
2019-04-07T01:00:17.075Z,94.16
2019-04-07T01:02:45.647Z,94.32
2019-04-07T01:05:14.784Z,94.42
2019-04-07T01:07:44.043Z,94.22
2019-04-07T01:10:12.877Z,94.21
2019-04-07T01:12:41.514Z,94.19
2019-04-07T01:15:10.905Z,94.29
2019-04-07T01:17:39.730Z,94.30
2019-04-07T01:20:10.612Z,94.27
2019-04-07T01:22:39.820Z,94.37
2019-04-07T01:25:08.979Z,94.39
2019-04-07T01:27:37.654Z,94.31
2019-04-07T01:30:07.182Z,94.08
2019-04-07T01:32:35.953Z,94.11
2019-04-07T01:35:05.803Z,94.42
2019-04-07T01:37:35.223Z,94.61
2019-04-07T01:40:04.532Z,94.37
2019-04-07T01:42:39.796Z,94.33
2019-04-07T01:45:34.386Z,94.37
2019-04-07T01:48:09.560Z,94.48
2019-04-07T01:50:55.499Z,94.64
2019-04-07T01:53:44.361Z,94.66
2019-04-07T01:56:27.510Z,94.72
2019-04-07T01:59:14.467Z,94.97
2019-04-07T02:02:02.365Z,94.80
2019-04-07T02:04:40.769Z,94.71
2019-04-07T02:07:25.161Z,94.64
2019-04-07T02:10:12.082Z,94.38
2019-04-07T02:13:09.820Z,94.32
2019-04-07T02:16:10.324Z,94.91
2019-04-07T02:19:06.252Z,94.59
2019-04-07T02:21:47.038Z,94.58
2019-04-07T02:24:20.452Z,95.10
2019-04-07T02:26:56.109Z,94.88
2019-04-07T02:29:35.816Z,94.97
2019-04-07T02:32:11.326Z,94.87
2019-04-07T02:34:49.106Z,94.82
2019-04-07T02:37:28.120Z,94.71
2019-04-07T02:40:05.006Z,94.67
2019-04-07T02:42:59.394Z,95.01
2019-04-07T02:45:38.618Z,95.02
2019-04-07T02:48:13.873Z,94.98
2019-04-07T02:51:08.034Z,94.98
2019-04-07T02:53:51.108Z,94.99
2019-04-07T02:56:32.608Z,95.16
2019-04-07T02:59:20.549Z,95.21
2019-04-07T03:02:00.746Z,95.11
2019-04-07T03:04:44.297Z,95.12
2019-04-07T03:07:25.121Z,95.08
2019-04-07T03:10:18.844Z,95.04
2019-04-07T03:13:18.325Z,95.08
2019-04-07T03:15:55.325Z,95.03
2019-04-07T03:18:58.192Z,95.01
2019-04-07T03:21:46.141Z,95.02
2019-04-07T03:24:33.637Z,95.01
2019-04-07T03:27:11.265Z,95.08
2019-04-07T03:30:01.150Z,95.18
2019-04-07T03:33:07.819Z,95.38
2019-04-07T03:35:41.139Z,95.39
2019-04-07T03:38:27.425Z,95.52
2019-04-07T03:41:13.865Z,95.87
2019-04-07T03:43:51.063Z,95.76
2019-04-07T03:46:25.312Z,95.66
2019-04-07T03:49:07.144Z,95.53
2019-04-07T03:51:51.492Z,95.59
2019-04-07T03:54:46.488Z,95.90
2019-04-07T03:57:24.133Z,95.83
2019-04-07T04:00:07.305Z,95.87
2019-04-07T04:02:49.391Z,95.91
2019-04-07T04:05:46.287Z,95.88
2019-04-07T04:08:24.495Z,95.71
2019-04-07T04:11:00.060Z,95.58
2019-04-07T04:13:35.777Z,95.67
2019-04-07T04:16:14.557Z,95.76
2019-04-07T04:18:44.626Z,95.79
2019-04-07T04:21:13.622Z,96.07
2019-04-07T04:23:43.575Z,96.23
2019-04-07T04:26:12.990Z,96.14
2019-04-07T04:28:42.003Z,96.04
2019-04-07T04:31:11.613Z,95.98
2019-04-07T04:33:40.592Z,96.04
2019-04-07T04:36:09.892Z,96.12
2019-04-07T04:38:38.626Z,96.09
2019-04-07T04:41:07.220Z,96.07
2019-04-07T04:43:36.085Z,96.18
2019-04-07T04:46:08.311Z,96.31
2019-04-07T04:48:35.312Z,96.21
2019-04-07T04:51:03.973Z,96.14
2019-04-07T04:53:32.622Z,96.38
2019-04-07T04:56:01.319Z,96.25
2019-04-07T04:58:30.280Z,96.15
2019-04-07T05:00:59.059Z,96.01
2019-04-07T05:03:27.694Z,96.18
2019-04-07T05:05:56.448Z,96.18
2019-04-07T05:08:25.858Z,96.40
2019-04-07T05:10:54.546Z,96.51
2019-04-07T05:13:23.228Z,96.63
2019-04-07T05:15:51.881Z,96.62
2019-04-07T05:18:21.098Z,96.67
2019-04-07T05:20:49.976Z,96.61
2019-04-07T05:23:18.621Z,96.51
2019-04-07T05:25:47.310Z,96.51
2019-04-07T05:28:16.600Z,96.50
2019-04-07T05:30:45.668Z,96.46
2019-04-07T05:33:14.348Z,96.38
2019-04-07T05:35:43.015Z,96.34
2019-04-07T05:38:11.664Z,96.35
2019-04-07T05:40:40.950Z,96.37
2019-04-07T05:43:09.718Z,96.32
2019-04-07T05:45:38.776Z,96.36
2019-04-07T05:48:08.261Z,96.41
2019-04-07T05:50:36.928Z,96.50
2019-04-07T05:53:06.839Z,96.35
2019-04-07T05:55:36.006Z,96.18
2019-04-07T05:58:07.197Z,96.09
2019-04-07T06:00:35.130Z,95.93
2019-04-07T06:03:06.543Z,96.04
2019-04-07T06:05:34.495Z,95.91
2019-04-07T06:08:20.886Z,95.79
2019-04-07T06:10:33.720Z,95.68
2019-04-07T06:13:03.072Z,95.70
2019-04-07T06:15:32.446Z,96.05
2019-04-07T06:18:01.706Z,96.10
2019-04-07T06:20:31.325Z,96.00
2019-04-07T06:23:00.375Z,95.67
2019-04-07T06:25:33.251Z,95.19
2019-04-07T06:27:59.439Z,94.27
2019-04-07T06:30:31.866Z,93.65
2019-04-07T06:32:58.831Z,93.81
2019-04-07T06:35:28.149Z,94.08
2019-04-07T06:37:58.090Z,94.53
2019-04-07T06:40:27.339Z,94.06
2019-04-07T06:42:56.773Z,93.71
2019-04-07T06:45:30.571Z,93.55
2019-04-07T06:48:02.555Z,93.91
2019-04-07T06:50:58.377Z,94.01
2019-04-07T06:53:34.960Z,91.69
2019-04-07T06:56:15.498Z,92.11
2019-04-07T06:58:56.755Z,92.13
2019-04-07T07:01:47.611Z,92.52
2019-04-07T07:04:47.565Z,91.06
2019-04-07T07:07:35.732Z,90.10
2019-04-07T07:10:32.600Z,89.12
2019-04-07T07:13:28.633Z,89.36
2019-04-07T07:15:58.665Z,89.01
2019-04-07T07:18:38.376Z,87.91
2019-04-07T07:21:25.141Z,85.34
2019-04-07T07:23:53.982Z,81.24
2019-04-07T07:26:23.344Z,78.81
2019-04-07T07:28:52.178Z,75.53
2019-04-07T07:31:25.249Z,73.89
2019-04-07T07:33:51.503Z,73.56
2019-04-07T07:36:22.453Z,73.78
2019-04-07T07:38:59.073Z,68.98
2019-04-07T07:41:23.043Z,67.48
2019-04-07T07:43:51.483Z,67.45
2019-04-07T07:46:22.408Z,66.48
2019-04-07T07:48:51.128Z,64.32
2019-04-07T07:51:20.299Z,64.38
2019-04-07T07:53:48.963Z,65.86
2019-04-07T07:56:17.647Z,63.03
2019-04-07T07:58:47.202Z,63.11
2019-04-07T08:01:17.009Z,62.67
2019-04-07T08:03:46.930Z,59.83
2019-04-07T08:06:16.129Z,60.49
2019-04-07T08:08:46.868Z,59.19
2019-04-07T08:11:16.681Z,58.21
2019-04-07T08:13:46.153Z,56.56
2019-04-07T08:16:16.352Z,56.04
2019-04-07T08:18:46.407Z,53.33
2019-04-07T08:21:17.638Z,51.80
2019-04-07T08:23:45.898Z,51.39
2019-04-07T08:26:14.733Z,52.29
2019-04-07T08:28:43.923Z,50.87
2019-04-07T08:31:13.277Z,49.30
2019-04-07T08:33:42.178Z,46.61
2019-04-07T08:36:12.993Z,45.57
2019-04-07T08:38:41.299Z,43.20
2019-04-07T08:41:11.555Z,42.36
2019-04-07T08:43:40.919Z,42.24
2019-04-07T08:46:09.947Z,42.30
2019-04-07T08:48:38.946Z,42.21
2019-04-07T08:51:08.499Z,40.73
2019-04-07T08:53:37.785Z,41.01
2019-04-07T08:56:08.732Z,40.83
2019-04-07T08:58:38.871Z,40.57
2019-04-07T09:01:07.496Z,40.23
2019-04-07T09:03:36.174Z,40.39
2019-04-07T09:06:05.029Z,39.81
2019-04-07T09:08:36.109Z,38.68
2019-04-07T09:11:08.998Z,38.66
2019-04-07T09:13:38.483Z,38.29
2019-04-07T09:16:25.056Z,38.95
2019-04-07T09:19:09.171Z,38.57
2019-04-07T09:21:52.847Z,38.17
2019-04-07T09:24:41.572Z,37.42
2019-04-07T09:27:22.999Z,37.16
2019-04-07T09:30:00.026Z,36.38
2019-04-07T09:32:39.556Z,35.91
2019-04-07T09:35:26.795Z,34.96
2019-04-07T09:41:07.242Z,34.44
2019-04-07T09:44:01.161Z,32.80
2019-04-07T09:46:49.970Z,31.73
2019-04-07T09:49:35.340Z,32.28
2019-04-07T09:52:14.073Z,30.45
2019-04-07T09:54:53.800Z,31.57
2019-04-07T09:57:29.088Z,31.58
2019-04-07T10:00:23.937Z,30.62
2019-04-07T10:03:13.597Z,31.36
2019-04-07T10:05:58.884Z,31.47
2019-04-07T10:08:53.301Z,31.44
2019-04-07T10:11:44.352Z,30.50
2019-04-07T10:14:33.255Z,31.41
2019-04-07T10:17:39.477Z,30.15
2019-04-07T10:20:30.216Z,30.01
2019-04-07T10:23:20.829Z,28.36
2019-04-07T10:26:14.531Z,29.57
2019-04-07T10:29:02.821Z,30.17
2019-04-07T10:31:46.370Z,28.91
2019-04-07T10:34:37.485Z,28.80
2019-04-07T10:37:41.472Z,27.95
2019-04-07T10:40:34.578Z,27.49
2019-04-07T10:43:19.667Z,25.71
2019-04-07T10:45:57.124Z,26.14
2019-04-07T10:48:32.096Z,27.02
2019-04-07T10:51:19.831Z,27.60
2019-04-07T10:54:11.048Z,28.29
2019-04-07T10:56:46.190Z,26.81
2019-04-07T10:59:21.118Z,24.20
2019-04-07T11:02:08.268Z,25.02
2019-04-07T11:05:08.507Z,25.16
2019-04-07T11:07:56.834Z,26.31
2019-04-07T11:10:44.104Z,27.26
2019-04-07T11:13:30.940Z,25.33
2019-04-07T11:16:18.618Z,26.66
2019-04-07T11:19:12.969Z,23.86
2019-04-07T11:21:59.692Z,24.93
2019-04-07T11:24:46.955Z,25.93
2019-04-07T11:27:35.395Z,26.52
2019-04-07T11:30:09.994Z,27.08
2019-04-07T11:33:07.187Z,24.41
2019-04-07T11:35:40.224Z,24.05
2019-04-07T11:38:27.632Z,26.96
2019-04-07T11:41:14.314Z,24.17
2019-04-07T11:43:47.988Z,22.46
2019-04-07T11:46:36.542Z,25.67
2019-04-07T11:49:14.423Z,25.83
2019-04-07T11:51:48.949Z,22.70
2019-04-07T11:54:22.030Z,22.55
2019-04-07T11:56:59.019Z,22.10
2019-04-07T11:59:45.933Z,23.06
2019-04-07T12:02:26.356Z,23.18
2019-04-07T12:05:13.102Z,22.16
2019-04-07T12:07:59.912Z,23.44
2019-04-07T12:10:41.229Z,22.50
2019-04-07T12:13:27.617Z,22.63
2019-04-07T12:16:14.554Z,22.60
2019-04-07T12:19:01.521Z,21.72
2019-04-07T12:21:38.227Z,21.34
2019-04-07T12:24:25.924Z,22.04
2019-04-07T12:27:13.580Z,21.92
2019-04-07T12:30:05.495Z,21.11
2019-04-07T12:32:58.430Z,21.96
2019-04-07T12:35:39.056Z,22.02
2019-04-07T12:38:27.435Z,21.65
2019-04-07T12:41:14.871Z,20.83
2019-04-07T12:43:50.435Z,18.81
2019-04-07T12:46:28.986Z,19.13
2019-04-07T12:49:17.192Z,21.00
2019-04-07T12:51:59.028Z,19.25
2019-04-07T12:54:43.672Z,17.02
2019-04-07T12:57:36.736Z,18.11
2019-04-07T13:00:19.180Z,18.01
2019-04-07T13:03:15.597Z,16.88
2019-04-07T13:05:56.161Z,16.06
2019-04-07T13:08:51.958Z,16.37
2019-04-07T13:11:45.025Z,17.82
2019-04-07T13:14:24.895Z,17.57
2019-04-07T13:17:05.661Z,16.46
2019-04-07T13:20:06.216Z,17.75
2019-04-07T13:22:42.151Z,19.17
2019-04-07T13:25:31.287Z,18.95
2019-04-07T13:28:06.550Z,17.80
2019-04-07T13:30:54.843Z,18.25
2019-04-07T13:33:48.694Z,18.25
2019-04-07T13:36:25.281Z,17.23
2019-04-07T13:39:12.106Z,16.12
2019-04-07T13:41:59.030Z,18.75
2019-04-07T13:44:38.756Z,18.11
2019-04-07T13:47:15.810Z,16.17
2019-04-07T13:49:59.799Z,16.63
2019-04-07T13:52:53.985Z,17.39
2019-04-07T13:55:45.393Z,17.85
2019-04-07T13:58:36.880Z,17.36
2019-04-07T14:01:34.689Z,16.19
2019-04-07T14:04:13.004Z,15.32
2019-04-07T14:06:53.376Z,16.16
2019-04-07T14:09:32.781Z,16.65
2019-04-07T14:12:32.363Z,16.85
2019-04-07T14:15:37.094Z,17.53
2019-04-07T14:18:15.564Z,18.61
2019-04-07T14:21:00.810Z,17.52
2019-04-07T14:23:44.676Z,16.07
2019-04-07T14:26:23.368Z,15.77
2019-04-07T14:29:05.353Z,17.50
2019-04-07T14:31:43.261Z,19.63
2019-04-07T14:34:31.596Z,19.46
2019-04-07T14:37:09.766Z,18.50
2019-04-07T14:40:00.993Z,17.61
2019-04-07T14:42:39.564Z,17.26
2019-04-07T14:45:19.994Z,17.81
2019-04-07T14:48:23.585Z,18.68
2019-04-07T14:51:26.532Z,17.97
2019-04-07T14:54:04.313Z,19.03
2019-04-07T14:56:52.026Z,19.22
2019-04-07T14:59:42.741Z,19.12
2019-04-07T15:02:12.723Z,19.15
2019-04-07T15:05:04.575Z,19.87
2019-04-07T15:07:41.994Z,20.04
2019-04-07T15:10:16.858Z,19.90
2019-04-07T15:12:56.950Z,18.73
2019-04-07T15:15:26.837Z,18.69
2019-04-07T15:17:55.957Z,17.51
2019-04-07T15:20:25.079Z,17.29
2019-04-07T15:22:53.971Z,17.70
2019-04-07T15:25:24.513Z,18.03
2019-04-07T15:27:56.483Z,19.36
2019-04-07T15:30:24.275Z,19.14
2019-04-07T15:32:53.080Z,20.81
2019-04-07T15:35:21.746Z,21.11
2019-04-07T15:37:51.969Z,19.54
2019-04-07T15:40:21.493Z,19.35
2019-04-07T15:42:51.166Z,18.24
2019-04-07T15:45:20.546Z,19.97
2019-04-07T15:47:52.952Z,19.00
2019-04-07T15:50:21.417Z,19.08
2019-04-07T15:52:50.853Z,20.23
2019-04-07T15:55:19.552Z,22.48
2019-04-07T15:57:49.181Z,23.32
2019-04-07T16:00:19.600Z,23.38
2019-04-07T16:02:50.203Z,23.33
2019-04-07T16:05:18.791Z,23.37
2019-04-07T16:07:48.116Z,22.72
2019-04-07T16:10:21.312Z,23.86
2019-04-07T16:12:51.131Z,22.79
2019-04-07T16:15:18.515Z,22.99
2019-04-07T16:17:49.035Z,22.17
2019-04-07T16:20:24.467Z,23.33
2019-04-07T16:22:51.406Z,23.45
2019-04-07T16:25:20.635Z,24.33
2019-04-07T16:27:51.028Z,23.55
2019-04-07T16:30:20.439Z,23.62
2019-04-07T16:32:49.170Z,22.88
2019-04-07T16:35:18.264Z,25.33
2019-04-07T16:37:47.858Z,26.31
2019-04-07T16:40:17.239Z,26.86
2019-04-07T16:43:02.589Z,25.34
2019-04-07T16:45:17.964Z,24.29
2019-04-07T16:47:47.726Z,23.88
2019-04-07T16:50:18.853Z,22.95
2019-04-07T16:52:47.196Z,23.32
2019-04-07T16:55:40.381Z,23.77
2019-04-07T16:58:11.649Z,23.95
2019-04-07T17:00:40.651Z,25.24
2019-04-07T17:03:10.104Z,26.47
2019-04-07T17:05:39.798Z,26.43
2019-04-07T17:08:08.792Z,27.05
2019-04-07T17:10:37.549Z,28.30
2019-04-07T17:13:17.784Z,28.62
2019-04-07T17:15:39.502Z,29.44
2019-04-07T17:18:10.583Z,29.90
2019-04-07T17:20:39.329Z,30.22
2019-04-07T17:23:08.181Z,31.45
2019-04-07T17:25:37.593Z,33.00
2019-04-07T17:28:06.533Z,34.70
2019-04-07T17:30:38.017Z,36.68
2019-04-07T17:33:06.563Z,37.54
2019-04-07T17:35:35.821Z,38.58
2019-04-07T17:38:06.949Z,39.20
2019-04-07T17:40:43.679Z,40.22
2019-04-07T17:43:40.574Z,40.52
2019-04-07T17:46:11.188Z,41.13
2019-04-07T17:48:55.304Z,41.86
2019-04-07T17:51:38.274Z,42.66
2019-04-07T17:54:32.865Z,43.21
2019-04-07T17:57:20.613Z,44.35
2019-04-07T17:59:58.308Z,44.63
2019-04-07T18:02:36.304Z,45.72
2019-04-07T18:05:26.828Z,46.49
2019-04-07T18:08:14.789Z,47.22
2019-04-07T18:11:00.098Z,47.83
2019-04-07T18:13:50.941Z,48.22
2019-04-07T18:16:28.662Z,48.73
2019-04-07T18:19:31.447Z,49.65
2019-04-07T18:22:20.450Z,49.90
2019-04-07T18:25:06.969Z,50.29
2019-04-07T18:27:58.874Z,50.34
2019-04-07T18:30:49.508Z,51.03
2019-04-07T18:33:42.364Z,52.58
2019-04-07T18:36:20.696Z,54.55
2019-04-07T18:39:03.379Z,55.48
2019-04-07T18:41:41.530Z,57.90
2019-04-07T18:44:40.995Z,58.75
2019-04-07T18:47:22.717Z,61.49
2019-04-07T18:50:20.725Z,63.39
2019-04-07T18:53:07.234Z,64.78
2019-04-07T18:55:53.774Z,65.83
2019-04-07T18:58:47.527Z,66.26
2019-04-07T19:01:24.374Z,67.05
2019-04-07T19:04:00.833Z,68.64
2019-04-07T19:07:00.650Z,70.05
2019-04-07T19:10:03.754Z,69.30
2019-04-07T19:12:43.104Z,70.66
2019-04-07T19:15:23.716Z,70.68
2019-04-07T19:18:11.878Z,70.69
2019-04-07T19:21:11.068Z,71.76
2019-04-07T19:23:50.874Z,71.61
2019-04-07T19:26:49.802Z,72.48
2019-04-07T19:29:42.931Z,72.89
2019-04-07T19:32:17.977Z,73.17
2019-04-07T19:34:53.086Z,73.63
2019-04-07T19:37:29.152Z,74.12
2019-04-07T19:40:15.623Z,74.13
2019-04-07T19:42:50.842Z,74.50
2019-04-07T19:45:33.002Z,74.39
2019-04-07T19:48:15.879Z,74.46
2019-04-07T19:51:15.654Z,74.47
2019-04-07T19:53:53.538Z,75.06
2019-04-07T19:56:31.423Z,75.68
2019-04-07T19:59:22.202Z,75.64
2019-04-07T20:02:10.024Z,75.69
2019-04-07T20:04:57.569Z,76.30
2019-04-07T20:07:46.178Z,77.04
2019-04-07T20:10:34.098Z,77.98
2019-04-07T20:13:14.021Z,78.42
2019-04-07T20:16:00.604Z,77.77
2019-04-07T20:18:45.915Z,78.67
2019-04-07T20:21:39.256Z,78.88
2019-04-07T20:24:11.328Z,80.47
2019-04-07T20:26:54.544Z,79.83
2019-04-07T20:29:43.489Z,80.66
2019-04-07T20:32:37.485Z,81.26
2019-04-07T20:35:19.059Z,81.95
2019-04-07T20:38:03.359Z,81.72
2019-04-07T20:40:42.973Z,81.94
2019-04-07T20:43:25.229Z,81.16
2019-04-07T20:46:07.099Z,81.21
2019-04-07T20:48:45.700Z,81.14
2019-04-07T20:51:27.744Z,81.29
2019-04-07T20:54:07.597Z,82.15
2019-04-07T20:56:50.506Z,82.11
2019-04-07T20:59:27.069Z,82.28
2019-04-07T21:02:07.511Z,83.20
2019-04-07T21:05:02.465Z,83.67
2019-04-07T21:07:51.298Z,83.93
2019-04-07T21:10:41.878Z,83.70
2019-04-07T21:13:23.653Z,84.99
2019-04-07T21:16:10.242Z,85.12
2019-04-07T21:18:44.957Z,84.91
2019-04-07T21:21:34.387Z,85.04
2019-04-07T21:24:37.597Z,84.96
2019-04-07T21:27:14.299Z,84.91
2019-04-07T21:29:54.710Z,85.19
2019-04-07T21:32:31.279Z,85.63
2019-04-07T21:35:10.842Z,86.18
2019-04-07T21:37:56.522Z,87.19
2019-04-07T21:40:41.195Z,87.48
2019-04-07T21:43:18.560Z,87.95
2019-04-07T21:46:24.901Z,88.64
2019-04-07T21:49:09.707Z,89.06
2019-04-07T21:51:46.588Z,88.96
2019-04-07T21:54:39.083Z,89.01
2019-04-07T21:57:27.264Z,88.88
2019-04-07T22:00:03.002Z,88.75
2019-04-07T22:02:50.307Z,88.10
2019-04-07T22:05:31.434Z,88.11
2019-04-07T22:08:22.249Z,87.27
2019-04-07T22:10:52.261Z,86.82
2019-04-07T22:13:21.678Z,87.54
2019-04-07T22:15:57.079Z,87.49
2019-04-07T22:18:21.595Z,87.42
2019-04-07T22:20:54.188Z,87.68
2019-04-07T22:23:21.571Z,88.30
2019-04-07T22:25:54.300Z,88.65
2019-04-07T22:28:27.721Z,88.61
2019-04-07T22:30:55.231Z,88.69
2019-04-07T22:33:25.677Z,89.17
2019-04-07T22:35:54.472Z,89.13
2019-04-07T22:38:23.808Z,88.96
2019-04-07T22:40:52.762Z,88.91
2019-04-07T22:43:21.414Z,89.13
2019-04-07T22:45:59.392Z,89.41
2019-04-07T22:48:22.813Z,89.75
2019-04-07T22:50:51.816Z,89.62
2019-04-07T22:53:22.568Z,89.37
2019-04-07T22:55:50.906Z,89.81
2019-04-07T22:58:20.124Z,89.65
2019-04-07T23:00:50.485Z,89.99
2019-04-07T23:03:19.727Z,90.22
2019-04-07T23:05:49.153Z,89.97
2019-04-07T23:08:18.758Z,89.73
2019-04-07T23:10:47.886Z,90.14
2019-04-07T23:13:16.752Z,89.94
2019-04-07T23:15:47.038Z,90.33
2019-04-07T23:18:16.036Z,90.46
2019-04-07T23:20:44.705Z,90.73
2019-04-07T23:23:14.418Z,90.59
2019-04-07T23:25:44.043Z,91.11
2019-04-07T23:28:12.899Z,91.08
2019-04-07T23:30:41.573Z,91.23
2019-04-07T23:33:10.496Z,91.40
2019-04-07T23:35:39.344Z,91.07
2019-04-07T23:38:08.046Z,91.14
2019-04-07T23:40:37.699Z,91.12
2019-04-07T23:43:06.463Z,91.40
2019-04-07T23:45:35.748Z,91.68
2019-04-07T23:48:04.608Z,91.53
2019-04-07T23:50:33.600Z,91.58
2019-04-07T23:53:39.289Z,91.54
2019-04-07T23:56:07.975Z,91.68
2019-04-07T23:58:36.635Z,91.77
